アスタナ の空港の天気 - METARとTAF

アスタナ国際空港 ( UACC / TSE ) - カザフスタン アスタナ
飛行場実況気象(Metar)
観測時間04/25 22:00 +06 (04/25 16:00 UTC)
風向・風速南東 4m/s
視程10km以上
天気現象
なし
気温13℃
湿度54%
気圧1017hPa
METARUACC 251600Z 13004MPS CAVOK 13/04 Q1017 R22/0///70 NOSIG RMK QFE732/0976
過去の天気等 Google飛行場航空写真 Wunderground天気予報

過去48時間のMETAR

飛行場予報(TAF)
発表時間: 4/25 17:00 +06 (4/25 11:00 UTC)
予報対象時間: 25日18時 +06 ~ 26日18時 +06
風向・風速南 5m/s
視程10km以上
なし
26日12時 +06 ~ 26日18時 +06 に一時的に
風向・風速南 8m/s
全天の8割程度の雲 雲底高度 1,220m
TAF UACC 251100Z 2512/2612 17005MPS 9999 NSC TX27/2609Z TN11/2523Z
TEMPO 2606/2612 19008MPS BKN040